Weather at Amsterdam Airport Schiphol

Public forecast

Using degrees Celsius for public forecast. Weather courtesy of forecast.io.

Current aviation weather report (METAR) for Amsterdam Airport Schiphol

Retrieved 2021/01/23 22:25 UTC (0 seconds ago):

EHAM 232225Z VRB01KT 9999 MIFG SCT023 01/00 Q0993 NOSIG

Aviation forecast (TAF) for Amsterdam Airport Schiphol

Retrieved 2021/01/23 18:27 UTC (4 hours ago):

TAF TAF EHAM 231704Z 2318/2424 28005KT 9999 SCT025 TEMPO 2323/2407 30008KT 5000 -SHRASN SCT008 SCT018CB BKN025 PROB30 TEMPO 2323/2407 2500 SHSNRA SHGS BKN008 SCT018CB BKN025 BECMG 2415/2418 18005KT BECMG 2420/2424 05005KT CAVOK